createdAt,value
2018-12-07T00:00:04.306Z,11.30
2018-12-07T00:02:32.154Z,11.30
2018-12-07T00:05:00.182Z,11.30
2018-12-07T00:07:27.958Z,11.30
2018-12-07T00:09:55.451Z,11.30
2018-12-07T00:12:23.350Z,11.30
2018-12-07T00:14:51.122Z,11.30
2018-12-07T00:17:18.610Z,11.30
2018-12-07T00:19:47.998Z,11.30
2018-12-07T00:22:16.041Z,11.30
2018-12-07T00:24:44.113Z,11.30
2018-12-07T00:27:11.761Z,11.30
2018-12-07T00:29:39.557Z,11.30
2018-12-07T00:32:07.075Z,11.30
2018-12-07T00:34:34.561Z,11.40
2018-12-07T00:37:02.486Z,11.30
2018-12-07T00:39:29.974Z,11.30
2018-12-07T00:41:58.086Z,11.30
2018-12-07T00:44:25.781Z,11.40
2018-12-07T00:46:53.273Z,11.30
2018-12-07T00:49:20.764Z,11.40
2018-12-07T00:51:48.381Z,11.40
2018-12-07T00:54:15.873Z,11.40
2018-12-07T00:56:43.486Z,11.40
2018-12-07T00:59:11.502Z,11.40
2018-12-07T01:01:39.905Z,11.40
2018-12-07T01:04:07.757Z,11.40
2018-12-07T01:06:35.313Z,11.30
2018-12-07T01:09:04.279Z,11.30
2018-12-07T01:11:31.889Z,11.30
2018-12-07T01:13:59.804Z,11.40
2018-12-07T01:16:27.471Z,11.40
2018-12-07T01:18:55.110Z,11.40
2018-12-07T01:21:23.035Z,11.40
2018-12-07T01:23:51.543Z,11.40
2018-12-07T01:26:20.458Z,11.40
2018-12-07T01:28:48.810Z,11.40
2018-12-07T01:31:16.370Z,11.40
2018-12-07T01:33:43.857Z,11.40
2018-12-07T01:36:12.362Z,11.40
2018-12-07T01:38:40.139Z,11.40
2018-12-07T01:41:07.629Z,11.40
2018-12-07T01:43:35.244Z,11.40
2018-12-07T01:46:02.733Z,11.40
2018-12-07T01:48:30.809Z,11.40
2018-12-07T01:50:58.408Z,11.50
2018-12-07T01:53:25.917Z,11.50
2018-12-07T01:55:53.405Z,11.50
2018-12-07T01:58:21.565Z,11.50
2018-12-07T02:00:49.062Z,11.50
2018-12-07T02:03:16.859Z,11.50
2018-12-07T02:05:44.939Z,11.50
2018-12-07T02:08:13.014Z,11.50
2018-12-07T02:10:40.506Z,11.50
2018-12-07T02:13:08.842Z,11.60
2018-12-07T02:15:36.899Z,11.50
2018-12-07T02:18:04.737Z,11.60
2018-12-07T02:20:32.234Z,11.60
2018-12-07T02:23:00.012Z,11.60
2018-12-07T02:25:28.101Z,11.60
2018-12-07T02:27:58.638Z,11.60
2018-12-07T02:30:26.461Z,11.70
2018-12-07T02:32:54.485Z,11.60
2018-12-07T02:35:21.970Z,11.60
2018-12-07T02:37:49.462Z,11.60
2018-12-07T02:40:16.975Z,11.70
2018-12-07T02:42:45.845Z,11.70
2018-12-07T02:45:13.446Z,11.70
2018-12-07T02:47:40.959Z,11.60
2018-12-07T02:50:09.317Z,11.70
2018-12-07T02:52:37.369Z,11.70
2018-12-07T02:55:07.066Z,11.70
2018-12-07T02:57:34.565Z,11.60
2018-12-07T03:00:02.071Z,11.60
2018-12-07T03:02:29.553Z,11.70
2018-12-07T03:04:57.078Z,11.60
2018-12-07T03:07:24.565Z,11.70
2018-12-07T03:09:52.077Z,11.70
2018-12-07T03:12:19.565Z,11.60
2018-12-07T03:14:47.090Z,11.70
2018-12-07T03:17:14.589Z,11.60
2018-12-07T03:19:42.093Z,11.70
2018-12-07T03:22:09.913Z,11.60
2018-12-07T03:24:37.425Z,11.60
2018-12-07T03:27:05.239Z,11.70
2018-12-07T03:29:32.810Z,11.70
2018-12-07T03:32:00.390Z,11.60
2018-12-07T03:34:27.902Z,11.60
2018-12-07T03:36:55.682Z,11.60
2018-12-07T03:39:23.194Z,11.60
2018-12-07T03:41:50.761Z,11.60
2018-12-07T03:44:18.269Z,11.60
2018-12-07T03:46:45.761Z,11.60
2018-12-07T03:49:13.257Z,11.60
2018-12-07T03:51:40.770Z,11.60
2018-12-07T03:54:08.263Z,11.60
2018-12-07T03:56:36.050Z,11.60
2018-12-07T03:59:03.813Z,11.60
2018-12-07T04:01:31.301Z,11.60
2018-12-07T04:03:58.794Z,11.60
2018-12-07T04:06:26.318Z,11.60
2018-12-07T04:08:54.368Z,11.60
2018-12-07T04:11:21.969Z,11.60
2018-12-07T04:13:49.481Z,11.60
2018-12-07T04:16:16.971Z,11.60
2018-12-07T04:18:44.463Z,11.50
2018-12-07T04:21:11.982Z,11.50
2018-12-07T04:23:39.597Z,11.60
2018-12-07T04:26:07.087Z,11.60
2018-12-07T04:28:36.194Z,11.60
2018-12-07T04:31:04.122Z,11.60
2018-12-07T04:33:31.627Z,11.60
2018-12-07T04:36:07.158Z,11.60
2018-12-07T04:38:28.657Z,11.60
2018-12-07T04:40:56.151Z,11.60
2018-12-07T04:43:23.665Z,11.70
2018-12-07T04:45:51.160Z,11.70
2018-12-07T04:48:19.286Z,11.60
2018-12-07T04:50:46.885Z,11.60
2018-12-07T04:53:14.393Z,11.70
2018-12-07T04:55:41.890Z,11.60
2018-12-07T04:58:09.530Z,11.60
2018-12-07T05:00:37.678Z,11.60
2018-12-07T05:03:05.237Z,11.60
2018-12-07T05:05:33.033Z,11.70
2018-12-07T05:08:00.550Z,11.60
2018-12-07T05:10:28.053Z,11.60
2018-12-07T05:12:55.569Z,11.60
2018-12-07T05:15:23.155Z,11.60
2018-12-07T05:17:50.658Z,11.60
2018-12-07T05:20:18.174Z,11.70
2018-12-07T05:22:45.950Z,11.70
2018-12-07T05:25:13.502Z,11.70
2018-12-07T05:27:41.018Z,11.70
2018-12-07T05:30:08.934Z,11.80
2018-12-07T05:32:36.422Z,11.80
2018-12-07T05:35:04.217Z,11.80
2018-12-07T05:37:31.707Z,11.80
2018-12-07T05:39:59.205Z,11.80
2018-12-07T05:42:26.746Z,11.90
2018-12-07T05:44:54.242Z,11.90
2018-12-07T05:47:21.794Z,11.80
2018-12-07T05:49:50.027Z,11.90
2018-12-07T05:52:17.997Z,11.90
2018-12-07T05:54:45.482Z,11.90
2018-12-07T05:57:14.031Z,11.90
2018-12-07T05:59:41.520Z,11.90
2018-12-07T06:02:09.014Z,11.90
2018-12-07T06:04:36.602Z,11.90
2018-12-07T06:07:04.470Z,11.90
2018-12-07T06:09:31.987Z,11.90
2018-12-07T06:11:59.490Z,11.90
2018-12-07T06:14:26.983Z,11.90
2018-12-07T06:16:54.494Z,11.90
2018-12-07T06:19:21.994Z,11.90
2018-12-07T06:21:49.503Z,11.80
2018-12-07T06:24:16.989Z,11.80
2018-12-07T06:26:44.485Z,11.80
2018-12-07T06:29:11.997Z,11.80
2018-12-07T06:31:39.494Z,11.80
2018-12-07T06:34:06.994Z,11.80
2018-12-07T06:36:34.514Z,11.80
2018-12-07T06:39:02.003Z,11.80
2018-12-07T06:41:29.518Z,11.80
2018-12-07T06:43:57.012Z,11.80
2018-12-07T06:46:24.502Z,11.80
2018-12-07T06:49:05.105Z,11.80
2018-12-07T06:51:32.692Z,11.80
2018-12-07T06:54:00.354Z,11.80
2018-12-07T06:56:27.842Z,11.80
2018-12-07T06:58:55.332Z,11.80
2018-12-07T07:01:22.841Z,11.80
2018-12-07T07:03:50.336Z,11.80
2018-12-07T07:06:18.313Z,11.70
2018-12-07T07:08:45.799Z,11.80
2018-12-07T07:11:13.349Z,11.80
2018-12-07T07:13:40.839Z,11.70
2018-12-07T07:16:08.621Z,11.80
2018-12-07T07:18:36.109Z,11.80
2018-12-07T07:21:03.594Z,11.80
2018-12-07T07:23:31.153Z,11.80
2018-12-07T07:25:58.644Z,11.80
2018-12-07T07:28:26.141Z,11.80
2018-12-07T07:30:53.658Z,11.80
2018-12-07T07:33:21.154Z,11.80
2018-12-07T07:35:48.645Z,11.90
2018-12-07T07:38:16.159Z,11.90
2018-12-07T07:40:43.690Z,11.90
2018-12-07T07:43:11.206Z,11.90
2018-12-07T07:45:38.699Z,11.90
2018-12-07T07:48:06.189Z,11.80
2018-12-07T07:50:33.756Z,11.90
2018-12-07T07:53:01.243Z,11.90
2018-12-07T07:55:28.737Z,11.90
2018-12-07T07:57:56.253Z,11.90
2018-12-07T08:00:23.741Z,11.90
2018-12-07T08:02:51.266Z,11.90
2018-12-07T08:05:18.764Z,11.90
2018-12-07T08:07:46.285Z,11.90
2018-12-07T08:10:13.778Z,11.90
2018-12-07T08:12:41.293Z,11.90
2018-12-07T08:15:08.946Z,12.00
2018-12-07T08:17:36.446Z,12.00
2018-12-07T08:20:04.838Z,12.00
2018-12-07T08:22:32.332Z,12.00
2018-12-07T08:24:59.818Z,12.00
2018-12-07T08:27:27.330Z,12.00
2018-12-07T08:29:54.813Z,12.10
2018-12-07T08:32:22.305Z,12.10
2018-12-07T08:34:49.818Z,12.10
2018-12-07T08:37:17.302Z,12.10
2018-12-07T08:39:44.782Z,12.10
2018-12-07T08:42:12.293Z,12.10
2018-12-07T08:44:39.803Z,12.10
2018-12-07T08:47:07.366Z,12.10
2018-12-07T08:49:53.598Z,12.10
2018-12-07T08:52:21.486Z,12.10
2018-12-07T08:54:49.202Z,12.00
2018-12-07T08:57:16.970Z,12.10
2018-12-07T08:59:44.743Z,12.10
2018-12-07T09:02:12.251Z,12.10
2018-12-07T09:04:39.830Z,12.20
2018-12-07T09:07:07.445Z,12.20
2018-12-07T09:09:34.937Z,12.20
2018-12-07T09:12:02.442Z,12.30
2018-12-07T09:14:29.927Z,12.40
2018-12-07T09:16:57.413Z,12.60
2018-12-07T09:19:24.921Z,12.60
2018-12-07T09:21:52.405Z,12.60
2018-12-07T09:24:20.007Z,12.60
2018-12-07T09:26:47.895Z,12.70
2018-12-07T09:29:15.382Z,12.70
2018-12-07T09:31:42.891Z,12.70
2018-12-07T09:34:10.377Z,12.90
2018-12-07T09:36:37.869Z,13.10
2018-12-07T09:39:08.054Z,13.10
2018-12-07T09:41:35.577Z,13.20
2018-12-07T09:44:03.061Z,13.20
2018-12-07T09:46:31.029Z,13.20
2018-12-07T09:48:58.517Z,13.30
2018-12-07T09:51:26.045Z,13.20
2018-12-07T09:53:53.537Z,13.30
2018-12-07T09:56:21.023Z,13.40
2018-12-07T09:58:48.554Z,13.50
2018-12-07T10:01:16.045Z,13.40
2018-12-07T10:03:43.561Z,13.40
2018-12-07T10:06:11.297Z,13.40
2018-12-07T10:08:38.917Z,13.30
2018-12-07T10:11:06.421Z,13.30
2018-12-07T10:13:33.902Z,13.20
2018-12-07T10:16:01.570Z,13.10
2018-12-07T10:18:29.074Z,13.10
2018-12-07T10:20:56.561Z,13.00
2018-12-07T10:23:24.066Z,12.90
2018-12-07T10:25:54.875Z,12.90
2018-12-07T10:28:22.430Z,12.80
2018-12-07T10:30:49.913Z,12.80
2018-12-07T10:33:17.481Z,12.70
2018-12-07T10:35:45.084Z,12.80
2018-12-07T10:38:12.602Z,12.80
2018-12-07T10:40:40.095Z,12.80
2018-12-07T10:43:07.622Z,12.70
2018-12-07T10:45:35.123Z,12.70
2018-12-07T10:48:02.606Z,12.70
2018-12-07T10:50:30.114Z,12.80
2018-12-07T10:52:57.630Z,12.80
2018-12-07T10:55:25.138Z,12.70
2018-12-07T10:57:52.638Z,12.70
2018-12-07T11:03:25.187Z,12.90
2018-12-07T11:05:58.433Z,12.80
2018-12-07T11:08:31.642Z,12.80
2018-12-07T11:11:01.147Z,12.90
2018-12-07T11:13:35.667Z,12.90
2018-12-07T11:16:08.973Z,12.80
2018-12-07T11:21:44.722Z,12.70
2018-12-07T11:24:17.869Z,12.70
2018-12-07T11:26:51.372Z,12.70
2018-12-07T11:29:24.706Z,12.70
2018-12-07T11:31:57.913Z,12.70
2018-12-07T11:34:26.489Z,12.70
2018-12-07T11:36:54.007Z,12.70
2018-12-07T11:39:22.181Z,12.70
2018-12-07T11:41:49.758Z,12.70
2018-12-07T11:44:17.611Z,12.70
2018-12-07T11:46:45.121Z,12.70
2018-12-07T11:49:12.606Z,12.70
2018-12-07T11:51:40.139Z,12.70
2018-12-07T11:54:07.630Z,12.70
2018-12-07T11:56:35.121Z,12.70
2018-12-07T11:59:02.630Z,12.70
2018-12-07T12:01:30.245Z,12.60
2018-12-07T12:03:57.833Z,12.60
2018-12-07T12:06:25.338Z,12.60
2018-12-07T12:08:52.921Z,12.60
2018-12-07T12:11:20.766Z,12.60
2018-12-07T12:13:48.250Z,12.60
2018-12-07T12:16:15.773Z,12.60
2018-12-07T12:18:43.298Z,12.70
2018-12-07T12:21:10.785Z,12.70
2018-12-07T12:23:38.309Z,12.70
2018-12-07T12:26:05.886Z,12.70
2018-12-07T12:28:33.661Z,12.80
2018-12-07T12:31:01.146Z,12.70
2018-12-07T12:33:28.734Z,12.80
2018-12-07T12:35:56.281Z,12.80
2018-12-07T12:38:23.865Z,12.80
2018-12-07T12:40:51.350Z,12.80
2018-12-07T12:43:19.005Z,12.70
2018-12-07T12:45:46.497Z,12.70
2018-12-07T12:48:14.013Z,12.70
2018-12-07T12:50:41.601Z,12.80
2018-12-07T12:53:09.177Z,12.70
2018-12-07T12:55:36.706Z,12.80
2018-12-07T12:58:04.481Z,12.80
2018-12-07T13:00:31.975Z,12.80
2018-12-07T13:02:59.493Z,12.80
2018-12-07T13:05:27.597Z,12.80
2018-12-07T13:07:55.096Z,12.90
2018-12-07T13:10:22.585Z,12.90
2018-12-07T13:12:50.114Z,12.90
2018-12-07T13:15:17.897Z,12.80
2018-12-07T13:17:45.409Z,12.80
2018-12-07T13:20:12.902Z,12.70
2018-12-07T13:22:40.481Z,12.70
2018-12-07T13:25:08.257Z,12.60
2018-12-07T13:27:36.641Z,12.60
2018-12-07T13:30:04.930Z,12.60
2018-12-07T13:32:35.465Z,12.50
2018-12-07T13:35:04.737Z,12.50
2018-12-07T13:37:33.043Z,12.50
2018-12-07T13:40:00.886Z,12.30
2018-12-07T13:42:28.576Z,12.30
2018-12-07T13:44:56.673Z,12.30
2018-12-07T13:47:24.763Z,12.00
2018-12-07T13:49:54.922Z,11.80
2018-12-07T13:52:22.629Z,11.70
2018-12-07T13:54:50.223Z,11.70
2018-12-07T13:57:17.852Z,11.60
2018-12-07T13:59:45.518Z,11.60
2018-12-07T14:02:13.105Z,11.50
2018-12-07T14:04:40.687Z,11.50
2018-12-07T14:07:08.352Z,11.40
2018-12-07T14:09:36.145Z,11.40
2018-12-07T14:12:05.291Z,11.40
2018-12-07T14:14:32.937Z,11.40
2018-12-07T14:17:00.890Z,11.30
2018-12-07T14:19:29.397Z,11.30
2018-12-07T14:21:57.387Z,11.30
2018-12-07T14:24:25.069Z,11.30
2018-12-07T14:26:59.294Z,11.30
2018-12-07T14:29:22.453Z,11.30
2018-12-07T14:31:50.001Z,11.30
2018-12-07T14:34:17.577Z,11.40
2018-12-07T14:36:45.127Z,11.40
2018-12-07T14:39:12.860Z,11.40
2018-12-07T14:41:40.606Z,11.30
2018-12-07T14:44:08.174Z,11.30
2018-12-07T14:46:35.710Z,11.30
2018-12-07T14:49:03.587Z,11.30
2018-12-07T14:51:31.609Z,11.30
2018-12-07T14:54:00.961Z,11.30
2018-12-07T14:56:28.782Z,11.30
2018-12-07T14:58:56.390Z,11.40
2018-12-07T15:01:24.028Z,11.40
2018-12-07T15:03:51.803Z,11.40
2018-12-07T15:06:19.507Z,11.40
2018-12-07T15:08:47.581Z,11.40
2018-12-07T15:11:15.191Z,11.40
2018-12-07T15:13:42.818Z,11.40
2018-12-07T15:16:10.609Z,11.40
2018-12-07T15:18:38.195Z,11.40
2018-12-07T15:21:05.896Z,11.40
2018-12-07T15:23:33.625Z,11.40
2018-12-07T15:26:01.595Z,11.40
2018-12-07T15:28:29.724Z,11.50
2018-12-07T15:30:58.368Z,11.40
2018-12-07T15:33:26.092Z,11.50
2018-12-07T15:35:54.879Z,11.50
2018-12-07T15:38:22.701Z,11.50
2018-12-07T15:40:51.290Z,11.50
2018-12-07T15:43:18.960Z,11.50
2018-12-07T15:45:46.648Z,11.50
2018-12-07T15:48:14.287Z,11.50
2018-12-07T15:50:41.885Z,11.40
2018-12-07T15:53:09.452Z,11.50
2018-12-07T15:55:37.223Z,11.50
2018-12-07T15:58:05.169Z,11.50
2018-12-07T16:00:32.874Z,11.50
2018-12-07T16:03:00.574Z,11.50
2018-12-07T16:05:28.853Z,11.40
2018-12-07T16:07:56.580Z,11.40
2018-12-07T16:10:24.395Z,11.40
2018-12-07T16:12:52.002Z,11.40
2018-12-07T16:15:19.700Z,11.40
2018-12-07T16:17:47.334Z,11.30
2018-12-07T16:20:14.880Z,11.30
2018-12-07T16:22:43.072Z,11.30
2018-12-07T16:25:10.891Z,11.30
2018-12-07T16:27:38.807Z,11.30
2018-12-07T16:30:07.478Z,11.30
2018-12-07T16:32:35.077Z,11.30
2018-12-07T16:35:02.838Z,11.30
2018-12-07T16:37:30.436Z,11.30
2018-12-07T16:39:58.300Z,11.30
2018-12-07T16:42:25.983Z,11.30
2018-12-07T16:44:53.674Z,11.30
2018-12-07T16:47:21.336Z,11.30
2018-12-07T16:49:49.681Z,11.20
2018-12-07T16:52:17.719Z,11.20
2018-12-07T16:54:45.674Z,11.20
2018-12-07T16:57:13.283Z,11.20
2018-12-07T16:59:41.101Z,11.30
2018-12-07T17:02:08.692Z,11.30
2018-12-07T17:04:36.372Z,11.20
2018-12-07T17:07:04.186Z,11.20
2018-12-07T17:09:31.933Z,11.20
2018-12-07T17:11:59.529Z,11.20
2018-12-07T17:14:27.160Z,11.20
2018-12-07T17:16:55.012Z,11.10
2018-12-07T17:19:22.647Z,11.10
2018-12-07T17:21:50.351Z,11.10
2018-12-07T17:24:17.991Z,11.10
2018-12-07T17:26:45.776Z,11.10
2018-12-07T17:29:13.582Z,11.10
2018-12-07T17:31:41.506Z,11.10
2018-12-07T17:34:09.117Z,11.10
2018-12-07T17:36:37.157Z,11.10
2018-12-07T17:39:06.773Z,11.20
2018-12-07T17:41:34.415Z,11.10
2018-12-07T17:44:02.140Z,11.10
2018-12-07T17:46:30.056Z,11.10
2018-12-07T17:48:57.879Z,11.10
2018-12-07T17:51:25.669Z,11.10
2018-12-07T17:53:53.219Z,11.20
2018-12-07T17:56:20.740Z,11.20
2018-12-07T17:58:48.648Z,11.20
2018-12-07T18:01:16.685Z,11.20
2018-12-07T18:03:44.646Z,11.20
2018-12-07T18:06:12.818Z,11.30
2018-12-07T18:08:40.888Z,11.30
2018-12-07T18:11:09.066Z,11.20
2018-12-07T18:13:36.845Z,11.00
2018-12-07T18:16:04.711Z,10.90
2018-12-07T18:18:32.647Z,10.80
2018-12-07T18:21:00.233Z,10.60
2018-12-07T18:23:27.866Z,10.70
2018-12-07T18:25:55.519Z,10.60
2018-12-07T18:28:23.235Z,10.50
2018-12-07T18:30:50.947Z,10.30
2018-12-07T18:33:18.526Z,10.30
2018-12-07T18:35:46.115Z,10.30
2018-12-07T18:38:13.865Z,10.30
2018-12-07T18:40:41.603Z,10.20
2018-12-07T18:43:09.457Z,10.20
2018-12-07T18:45:37.172Z,10.30
2018-12-07T18:48:04.803Z,10.30
2018-12-07T18:50:32.409Z,10.40
2018-12-07T18:53:00.054Z,10.50
2018-12-07T18:55:27.726Z,10.60
2018-12-07T18:57:55.307Z,10.60
2018-12-07T19:00:23.127Z,10.60
2018-12-07T19:02:51.016Z,10.70
2018-12-07T19:05:19.173Z,10.70
2018-12-07T19:07:47.450Z,10.80
2018-12-07T19:10:15.106Z,10.70
2018-12-07T19:12:42.725Z,10.80
2018-12-07T19:15:10.665Z,10.70
2018-12-07T19:17:38.343Z,10.80
2018-12-07T19:20:06.635Z,10.80
2018-12-07T19:22:34.470Z,10.90
2018-12-07T19:25:02.325Z,11.00
2018-12-07T19:27:29.979Z,11.00
2018-12-07T19:29:57.597Z,10.90
2018-12-07T19:32:25.274Z,10.90
2018-12-07T19:34:52.842Z,10.90
2018-12-07T19:37:20.435Z,10.80
2018-12-07T19:39:48.326Z,10.90
2018-12-07T19:42:16.001Z,10.90
2018-12-07T19:44:43.777Z,10.90
2018-12-07T19:47:11.729Z,10.90
2018-12-07T19:49:39.426Z,10.90
2018-12-07T19:52:07.144Z,10.90
2018-12-07T19:54:34.801Z,10.90
2018-12-07T19:57:02.752Z,10.90
2018-12-07T19:59:30.698Z,10.90
2018-12-07T20:01:58.468Z,10.90
2018-12-07T20:04:26.111Z,10.90
2018-12-07T20:06:53.767Z,10.90
2018-12-07T20:09:21.518Z,10.90
2018-12-07T20:11:49.130Z,10.90
2018-12-07T20:14:16.656Z,10.90
2018-12-07T20:16:44.237Z,10.90
2018-12-07T20:19:11.746Z,10.90
2018-12-07T20:21:39.245Z,10.80
2018-12-07T20:24:06.797Z,10.80
2018-12-07T20:26:35.085Z,10.80
2018-12-07T20:29:02.990Z,10.60
2018-12-07T20:31:30.611Z,9.70
2018-12-07T20:33:58.368Z,8.90
2018-12-07T20:36:26.258Z,8.60
2018-12-07T20:38:53.962Z,8.40
2018-12-07T20:41:21.684Z,8.20
2018-12-07T20:43:49.603Z,8.10
2018-12-07T20:46:17.353Z,8.10
2018-12-07T20:48:44.943Z,8.00
2018-12-07T20:51:12.447Z,7.90
2018-12-07T20:53:39.929Z,7.90
2018-12-07T20:56:07.933Z,7.90
2018-12-07T20:58:35.900Z,7.90
2018-12-07T21:01:03.761Z,7.90
2018-12-07T21:07:08.297Z,7.80
2018-12-07T21:09:36.173Z,7.80
2018-12-07T21:12:07.826Z,7.80
2018-12-07T21:14:35.630Z,7.80
2018-12-07T21:17:10.925Z,7.80
2018-12-07T21:19:43.282Z,7.80
2018-12-07T21:22:11.194Z,7.80
2018-12-07T21:24:39.018Z,7.70
2018-12-07T21:27:06.792Z,7.80
2018-12-07T21:29:34.441Z,7.70
2018-12-07T21:32:05.581Z,7.70
2018-12-07T21:37:32.746Z,7.70
2018-12-07T21:40:04.653Z,7.70
2018-12-07T21:42:32.710Z,7.70
2018-12-07T21:45:00.254Z,7.60
2018-12-07T21:47:41.992Z,7.70
2018-12-07T21:50:13.749Z,7.60
2018-12-07T21:52:41.557Z,7.60
2018-12-07T21:55:09.223Z,7.50
2018-12-07T21:57:36.970Z,7.50
2018-12-07T22:00:06.286Z,7.40
2018-12-07T22:02:33.926Z,7.40
2018-12-07T22:05:01.663Z,7.40
2018-12-07T22:07:29.395Z,7.30
2018-12-07T22:09:57.004Z,7.20
2018-12-07T22:12:24.942Z,7.20
2018-12-07T22:14:52.977Z,7.30
2018-12-07T22:17:20.908Z,7.30
2018-12-07T22:19:48.686Z,7.30
2018-12-07T22:22:16.181Z,7.40
2018-12-07T22:24:43.666Z,7.40
2018-12-07T22:27:11.364Z,7.50
2018-12-07T22:29:39.027Z,7.50
2018-12-07T22:32:06.985Z,7.50
2018-12-07T22:34:34.730Z,7.50
2018-12-07T22:37:02.346Z,7.50
2018-12-07T22:39:30.175Z,7.50
2018-12-07T22:41:58.061Z,7.50
2018-12-07T22:44:26.236Z,7.50
2018-12-07T22:46:53.801Z,7.40
2018-12-07T22:49:21.312Z,7.40
2018-12-07T22:51:48.830Z,7.40
2018-12-07T22:54:16.329Z,7.40
2018-12-07T22:56:43.833Z,7.40
2018-12-07T22:59:11.318Z,7.40
2018-12-07T23:01:38.892Z,7.40
2018-12-07T23:04:06.488Z,7.30
2018-12-07T23:06:34.258Z,7.30
2018-12-07T23:09:01.809Z,7.20
2018-12-07T23:11:29.293Z,7.20
2018-12-07T23:13:56.781Z,7.10
2018-12-07T23:16:24.478Z,7.10
2018-12-07T23:18:51.962Z,7.10
2018-12-07T23:21:19.501Z,7.20
2018-12-07T23:23:47.018Z,7.20
2018-12-07T23:26:14.506Z,7.20
2018-12-07T23:28:42.289Z,7.20
2018-12-07T23:31:09.817Z,7.30
2018-12-07T23:33:37.297Z,7.20
2018-12-07T23:36:04.782Z,7.00
2018-12-07T23:38:32.298Z,7.00
2018-12-07T23:40:59.795Z,6.90
2018-12-07T23:43:27.546Z,6.80
2018-12-07T23:45:55.058Z,6.80
2018-12-07T23:48:22.542Z,6.80
2018-12-07T23:50:50.037Z,6.70
2018-12-07T23:53:17.553Z,6.70
2018-12-07T23:55:45.128Z,6.70
2018-12-07T23:58:12.657Z,6.70
